Gakona, AK (99586)

5:40 PM AKST on January 20, 2018 (GMT -0900)
Northway | | Change Station

Elev 1716 ft 62.96 °N, 141.93 °W | Updated 47 minutes ago

Mostly Cloudy
Mostly Cloudy
3 °F
Feels Like -12 °F
N
9
Wind Variable Wind from NW

Today
High -- | Low -- °F
--% Chance of Precip.
Yesterday
High -- | Low -- °F
Precip. -- in
Pressure 29.93 in
Visibility 7.0 miles
Clouds Mostly Cloudy 1400 ft
Overcast 2000 ft
Windchill -12 °F
Dew Point 0 °F
Humidity 87%
Rainfall 0.00 in
Snow Depth Not available.
9:29 AM 3:57 PM
Waxing Crescent, 14% visible
METAR PAOR 210153Z 32008KT 7SM -SN BKN014 OVC020 M16/M18 A2976 RMK AO2 SLP134 T11611178 $
Pressure 29.93 in
Visibility 7.0 miles
Clouds Mostly Cloudy 1400 ft
Overcast 2000 ft
Windchill -12 °F
Dew Point 0 °F
Humidity 87%
Rainfall 0.00 in
Snow Depth Not available.
9:29 AM 3:57 PM
Waxing Crescent, 14% visible
METAR PAOR 210153Z 32008KT 7SM -SN BKN014 OVC020 M16/M18 A2976 RMK AO2 SLP134 T11611178 $

Get Severe Weather Alerts

Thanks for signing up!

Be on the lookout for a verification email in your inbox.

You'll start receiving the daily forecast at 6 AM.

×

10-Day Weather Forecast

Almanac

Astronomy

Jan. 20, 2018 Rise Set
Actual Time
Civil Twilight
Nautical Twilight
Astronomical Twilight
Moon
Length of Visible Light
Length of Day
Tomorrow will be .
, % of the Moon is Illuminated

Today's Extremes

State Highs State Lows

Community

WunderPhotos

Category 6

Welcome to Category 6. This is the collective home for Weather Underground's featured writeups by Dr. Jeff Masters (right), Bob Henson (left), Chris Burt, and other regular contributors.

Nearby

Air Quality

  Air Quality AQ Index Pollutant
Not available.

Snow Depth

Station Depth Elevation

Earthquake Activity

City Distance Mag. Time & Date
Minimum magnitude displayed is 2.5.

Coastal Water Temperatures

Place Temperature

Stations

Nearby Weather Stations

Station Location Temp. Windchill Dew Point Humidity Wind Precip. Elev Updated Type
                   

Watches & Warnings

There are currently no watches in effect.